sensor_id;sensor_type;location;lat;lon;timestamp;P1;durP1;ratioP1;P2;durP2;ratioP2
64351;SDS011;50680;52.626;-8.668;2022-09-28T17:10:59;4.70;;;0.40;;
64351;SDS011;50680;52.626;-8.668;2022-09-28T17:13:50;2.60;;;0.30;;
64351;SDS011;50680;52.626;-8.668;2022-09-28T17:16:19;1.05;;;0.40;;
64351;SDS011;50680;52.626;-8.668;2022-09-28T17:19:15;4.45;;;0.20;;
64351;SDS011;50680;52.626;-8.668;2022-09-28T17:21:48;3.90;;;0.40;;
64351;SDS011;50680;52.626;-8.668;2022-09-28T17:24:17;2.13;;;0.45;;
64351;SDS011;50680;52.626;-8.668;2022-09-28T17:26:45;0.20;;;0.10;;
64351;SDS011;50680;52.626;-8.668;2022-09-28T17:29:14;4.03;;;0.32;;
64351;SDS011;50680;52.626;-8.668;2022-09-28T17:31:42;4.28;;;0.28;;
64351;SDS011;50680;52.626;-8.668;2022-09-28T17:34:11;1.15;;;0.20;;
64351;SDS011;50680;52.626;-8.668;2022-09-28T17:36:42;1.65;;;0.40;;
64351;SDS011;50680;52.626;-8.668;2022-09-28T17:39:13;1.70;;;0.22;;
64351;SDS011;50680;52.626;-8.668;2022-09-28T17:41:42;0.60;;;0.20;;
64351;SDS011;50680;52.626;-8.668;2022-09-28T17:44:09;2.28;;;0.30;;
64351;SDS011;50680;52.626;-8.668;2022-09-28T17:46:38;0.93;;;0.25;;
64351;SDS011;50680;52.626;-8.668;2022-09-28T17:49:11;2.40;;;0.30;;
64351;SDS011;50680;52.626;-8.668;2022-09-28T17:51:38;2.72;;;0.30;;
64351;SDS011;50680;52.626;-8.668;2022-09-28T17:54:05;5.30;;;0.30;;
64351;SDS011;50680;52.626;-8.668;2022-09-28T17:56:34;1.38;;;0.30;;
64351;SDS011;50680;52.626;-8.668;2022-09-28T17:59:03;1.45;;;0.25;;
64351;SDS011;50680;52.626;-8.668;2022-09-28T18:01:32;3.10;;;0.28;;
64351;SDS011;50680;52.626;-8.668;2022-09-28T18:04:03;0.22;;;0.20;;
64351;SDS011;50680;52.626;-8.668;2022-09-28T18:06:31;0.98;;;0.40;;
64351;SDS011;50680;52.626;-8.668;2022-09-28T18:08:59;3.83;;;0.30;;
64351;SDS011;50680;52.626;-8.668;2022-09-28T18:11:28;3.08;;;0.30;;
64351;SDS011;50680;52.626;-8.668;2022-09-28T18:13:57;2.72;;;0.20;;
64351;SDS011;50680;52.626;-8.668;2022-09-28T18:16:24;2.03;;;0.30;;
64351;SDS011;50680;52.626;-8.668;2022-09-28T18:18:53;3.00;;;0.30;;
64351;SDS011;50680;52.626;-8.668;2022-09-28T18:21:20;2.70;;;0.35;;
64351;SDS011;50680;52.626;-8.668;2022-09-28T18:23:47;1.58;;;0.22;;
64351;SDS011;50680;52.626;-8.668;2022-09-28T18:26:14;0.77;;;0.20;;
64351;SDS011;50680;52.626;-8.668;2022-09-28T18:28:42;1.00;;;0.20;;
64351;SDS011;50680;52.626;-8.668;2022-09-28T18:31:10;1.23;;;0.30;;
64351;SDS011;50680;52.626;-8.668;2022-09-28T18:33:38;1.80;;;0.30;;
64351;SDS011;50680;52.626;-8.668;2022-09-28T18:36:17;2.83;;;0.75;;
64351;SDS011;50680;52.626;-8.668;2022-09-28T18:38:44;2.15;;;0.40;;
64351;SDS011;50680;52.626;-8.668;2022-09-28T18:41:12;3.42;;;0.35;;
64351;SDS011;50680;52.626;-8.668;2022-09-28T18:43:47;1.95;;;0.40;;
64351;SDS011;50680;52.626;-8.668;2022-09-28T18:46:15;2.08;;;0.40;;
64351;SDS011;50680;52.626;-8.668;2022-09-28T18:48:43;4.13;;;0.60;;
64351;SDS011;50680;52.626;-8.668;2022-09-28T18:51:12;6.28;;;0.63;;
64351;SDS011;50680;52.626;-8.668;2022-09-28T18:53:39;5.10;;;1.00;;
64351;SDS011;50680;52.626;-8.668;2022-09-28T18:56:10;6.95;;;0.90;;
64351;SDS011;50680;52.626;-8.668;2022-09-28T18:58:40;4.30;;;1.10;;
64351;SDS011;50680;52.626;-8.668;2022-09-28T19:01:09;2.70;;;0.68;;
64351;SDS011;50680;52.626;-8.668;2022-09-28T19:03:54;5.38;;;0.82;;
64351;SDS011;50680;52.626;-8.668;2022-09-28T19:06:23;2.42;;;0.65;;
64351;SDS011;50680;52.626;-8.668;2022-09-28T19:08:51;2.90;;;0.65;;
64351;SDS011;50680;52.626;-8.668;2022-09-28T19:11:21;2.53;;;0.50;;
64351;SDS011;50680;52.626;-8.668;2022-09-28T19:13:49;3.35;;;0.60;;
64351;SDS011;50680;52.626;-8.668;2022-09-28T19:16:18;4.18;;;0.70;;
64351;SDS011;50680;52.626;-8.668;2022-09-28T19:18:47;2.75;;;0.63;;
64351;SDS011;50680;52.626;-8.668;2022-09-28T19:21:15;3.42;;;0.68;;
64351;SDS011;50680;52.626;-8.668;2022-09-28T19:23:43;3.00;;;0.70;;
64351;SDS011;50680;52.626;-8.668;2022-09-28T19:26:15;3.13;;;0.93;;
64351;SDS011;50680;52.626;-8.668;2022-09-28T19:28:47;3.85;;;1.45;;
64351;SDS011;50680;52.626;-8.668;2022-09-28T19:31:14;2.00;;;0.60;;
64351;SDS011;50680;52.626;-8.668;2022-09-28T19:33:42;4.47;;;0.90;;
64351;SDS011;50680;52.626;-8.668;2022-09-28T19:36:11;2.83;;;0.70;;
64351;SDS011;50680;52.626;-8.668;2022-09-28T19:38:43;2.65;;;0.65;;
64351;SDS011;50680;52.626;-8.668;2022-09-28T19:41:15;7.15;;;0.70;;
64351;SDS011;50680;52.626;-8.668;2022-09-28T19:44:17;2.85;;;1.02;;
64351;SDS011;50680;52.626;-8.668;2022-09-28T19:46:56;3.70;;;1.00;;
64351;SDS011;50680;52.626;-8.668;2022-09-28T19:49:36;2.58;;;0.80;;
64351;SDS011;50680;52.626;-8.668;2022-09-28T19:52:06;2.28;;;0.85;;
64351;SDS011;50680;52.626;-8.668;2022-09-28T19:54:47;6.00;;;0.90;;
64351;SDS011;50680;52.626;-8.668;2022-09-28T19:57:26;3.30;;;1.02;;
64351;SDS011;50680;52.626;-8.668;2022-09-28T19:59:55;1.95;;;0.90;;
64351;SDS011;50680;52.626;-8.668;2022-09-28T20:02:27;4.40;;;1.17;;
64351;SDS011;50680;52.626;-8.668;2022-09-28T20:04:55;5.72;;;1.50;;
64351;SDS011;50680;52.626;-8.668;2022-09-28T20:07:21;7.88;;;1.20;;
64351;SDS011;50680;52.626;-8.668;2022-09-28T20:09:48;4.78;;;1.70;;
64351;SDS011;50680;52.626;-8.668;2022-09-28T20:12:15;7.15;;;1.23;;
64351;SDS011;50680;52.626;-8.668;2022-09-28T20:14:42;4.05;;;0.80;;
64351;SDS011;50680;52.626;-8.668;2022-09-28T20:17:09;4.15;;;0.98;;
64351;SDS011;50680;52.626;-8.668;2022-09-28T20:19:36;4.63;;;1.10;;
64351;SDS011;50680;52.626;-8.668;2022-09-28T20:22:03;7.32;;;1.83;;
64351;SDS011;50680;52.626;-8.668;2022-09-28T20:24:30;7.25;;;1.30;;
64351;SDS011;50680;52.626;-8.668;2022-09-28T20:26:57;8.35;;;1.05;;
64351;SDS011;50680;52.626;-8.668;2022-09-28T20:29:26;6.55;;;1.05;;
64351;SDS011;50680;52.626;-8.668;2022-09-28T20:31:54;6.18;;;1.10;;
64351;SDS011;50680;52.626;-8.668;2022-09-28T20:34:21;8.18;;;0.90;;
64351;SDS011;50680;52.626;-8.668;2022-09-28T20:36:48;5.65;;;0.88;;
64351;SDS011;50680;52.626;-8.668;2022-09-28T20:39:15;5.13;;;0.90;;
64351;SDS011;50680;52.626;-8.668;2022-09-28T20:41:42;4.13;;;1.30;;
64351;SDS011;50680;52.626;-8.668;2022-09-28T20:44:09;6.53;;;0.90;;
64351;SDS011;50680;52.626;-8.668;2022-09-28T20:46:36;4.93;;;0.80;;
64351;SDS011;50680;52.626;-8.668;2022-09-28T20:49:04;4.82;;;0.85;;
64351;SDS011;50680;52.626;-8.668;2022-09-28T20:51:32;2.97;;;0.90;;
64351;SDS011;50680;52.626;-8.668;2022-09-28T20:53:59;5.53;;;0.80;;
64351;SDS011;50680;52.626;-8.668;2022-09-28T20:56:31;5.38;;;1.08;;
64351;SDS011;50680;52.626;-8.668;2022-09-28T20:59:06;7.00;;;0.93;;
64351;SDS011;50680;52.626;-8.668;2022-09-28T21:01:35;4.68;;;0.82;;
64351;SDS011;50680;52.626;-8.668;2022-09-28T21:04:03;12.05;;;0.90;;
64351;SDS011;50680;52.626;-8.668;2022-09-28T21:06:33;4.72;;;1.33;;
64351;SDS011;50680;52.626;-8.668;2022-09-28T21:09:02;4.40;;;0.75;;
64351;SDS011;50680;52.626;-8.668;2022-09-28T21:11:30;4.35;;;1.30;;
64351;SDS011;50680;52.626;-8.668;2022-09-28T21:14:02;5.80;;;0.90;;
64351;SDS011;50680;52.626;-8.668;2022-09-28T21:16:32;6.25;;;1.08;;
64351;SDS011;50680;52.626;-8.668;2022-09-28T21:19:00;5.10;;;1.20;;
64351;SDS011;50680;52.626;-8.668;2022-09-28T21:21:28;3.88;;;0.85;;
64351;SDS011;50680;52.626;-8.668;2022-09-28T21:23:55;4.78;;;0.70;;
64351;SDS011;50680;52.626;-8.668;2022-09-28T21:26:26;5.50;;;0.80;;
64351;SDS011;50680;52.626;-8.668;2022-09-28T21:28:55;3.58;;;0.93;;
64351;SDS011;50680;52.626;-8.668;2022-09-28T21:31:24;7.10;;;1.08;;
64351;SDS011;50680;52.626;-8.668;2022-09-28T21:33:55;3.78;;;0.82;;
64351;SDS011;50680;52.626;-8.668;2022-09-28T21:36:23;6.60;;;0.95;;
64351;SDS011;50680;52.626;-8.668;2022-09-28T21:38:51;2.33;;;0.70;;
64351;SDS011;50680;52.626;-8.668;2022-09-28T21:41:19;7.32;;;0.98;;
64351;SDS011;50680;52.626;-8.668;2022-09-28T21:43:46;6.97;;;0.98;;
64351;SDS011;50680;52.626;-8.668;2022-09-28T21:46:13;6.82;;;0.80;;
64351;SDS011;50680;52.626;-8.668;2022-09-28T21:48:40;5.30;;;0.70;;
64351;SDS011;50680;52.626;-8.668;2022-09-28T21:51:08;5.00;;;0.90;;
64351;SDS011;50680;52.626;-8.668;2022-09-28T21:53:38;7.30;;;1.08;;
64351;SDS011;50680;52.626;-8.668;2022-09-28T21:56:05;5.75;;;0.77;;
64351;SDS011;50680;52.626;-8.668;2022-09-28T21:58:35;3.55;;;0.70;;
64351;SDS011;50680;52.626;-8.668;2022-09-28T22:03:34;5.75;;;0.70;;
64351;SDS011;50680;52.626;-8.668;2022-09-28T22:06:02;5.97;;;1.00;;
64351;SDS011;50680;52.626;-8.668;2022-09-28T22:08:30;4.50;;;0.88;;
64351;SDS011;50680;52.626;-8.668;2022-09-28T22:11:04;2.10;;;0.70;;
64351;SDS011;50680;52.626;-8.668;2022-09-28T22:13:58;5.65;;;0.77;;
64351;SDS011;50680;52.626;-8.668;2022-09-28T22:16:26;5.85;;;0.90;;
64351;SDS011;50680;52.626;-8.668;2022-09-28T22:18:56;5.25;;;0.80;;
64351;SDS011;50680;52.626;-8.668;2022-09-28T22:21:24;4.35;;;0.93;;
64351;SDS011;50680;52.626;-8.668;2022-09-28T22:23:53;4.45;;;0.77;;
64351;SDS011;50680;52.626;-8.668;2022-09-28T22:26:33;5.22;;;1.02;;
64351;SDS011;50680;52.626;-8.668;2022-09-28T22:29:02;8.77;;;1.00;;
64351;SDS011;50680;52.626;-8.668;2022-09-28T22:31:32;5.53;;;0.95;;
64351;SDS011;50680;52.626;-8.668;2022-09-28T22:34:01;7.00;;;0.90;;
64351;SDS011;50680;52.626;-8.668;2022-09-28T22:36:28;4.65;;;1.10;;
64351;SDS011;50680;52.626;-8.668;2022-09-28T22:38:56;4.35;;;0.70;;
64351;SDS011;50680;52.626;-8.668;2022-09-28T22:41:23;5.95;;;0.88;;
64351;SDS011;50680;52.626;-8.668;2022-09-28T22:43:51;4.35;;;0.70;;
64351;SDS011;50680;52.626;-8.668;2022-09-28T22:46:19;6.93;;;1.35;;
64351;SDS011;50680;52.626;-8.668;2022-09-28T22:48:55;5.53;;;1.10;;
64351;SDS011;50680;52.626;-8.668;2022-09-28T22:51:23;8.00;;;1.17;;
64351;SDS011;50680;52.626;-8.668;2022-09-28T22:53:51;6.57;;;1.23;;
64351;SDS011;50680;52.626;-8.668;2022-09-28T22:56:18;3.42;;;1.00;;
64351;SDS011;50680;52.626;-8.668;2022-09-28T22:58:45;4.18;;;0.80;;
64351;SDS011;50680;52.626;-8.668;2022-09-28T23:01:14;4.72;;;0.80;;
64351;SDS011;50680;52.626;-8.668;2022-09-28T23:03:43;7.88;;;0.90;;
64351;SDS011;50680;52.626;-8.668;2022-09-28T23:06:11;6.88;;;1.00;;
64351;SDS011;50680;52.626;-8.668;2022-09-28T23:08:41;5.47;;;0.73;;
64351;SDS011;50680;52.626;-8.668;2022-09-28T23:11:10;4.68;;;1.00;;
64351;SDS011;50680;52.626;-8.668;2022-09-28T23:13:37;9.82;;;0.90;;
64351;SDS011;50680;52.626;-8.668;2022-09-28T23:16:05;6.35;;;1.45;;
64351;SDS011;50680;52.626;-8.668;2022-09-28T23:18:36;3.80;;;0.95;;
64351;SDS011;50680;52.626;-8.668;2022-09-28T23:21:08;6.90;;;0.90;;
64351;SDS011;50680;52.626;-8.668;2022-09-28T23:23:37;8.43;;;0.98;;
64351;SDS011;50680;52.626;-8.668;2022-09-28T23:26:14;8.15;;;1.08;;
64351;SDS011;50680;52.626;-8.668;2022-09-28T23:28:43;4.93;;;0.70;;
64351;SDS011;50680;52.626;-8.668;2022-09-28T23:31:27;8.05;;;1.23;;
64351;SDS011;50680;52.626;-8.668;2022-09-28T23:33:57;7.53;;;0.90;;
64351;SDS011;50680;52.626;-8.668;2022-09-28T23:36:25;6.35;;;0.80;;
64351;SDS011;50680;52.626;-8.668;2022-09-28T23:38:53;5.20;;;0.70;;
64351;SDS011;50680;52.626;-8.668;2022-09-28T23:41:20;4.65;;;0.85;;
64351;SDS011;50680;52.626;-8.668;2022-09-28T23:43:47;7.05;;;0.80;;
64351;SDS011;50680;52.626;-8.668;2022-09-28T23:46:14;6.40;;;1.25;;
64351;SDS011;50680;52.626;-8.668;2022-09-28T23:48:46;3.83;;;0.80;;
64351;SDS011;50680;52.626;-8.668;2022-09-28T23:51:13;8.48;;;1.00;;
64351;SDS011;50680;52.626;-8.668;2022-09-28T23:53:40;8.65;;;1.55;;
64351;SDS011;50680;52.626;-8.668;2022-09-28T23:56:10;9.05;;;0.90;;
64351;SDS011;50680;52.626;-8.668;2022-09-28T23:58:37;5.00;;;0.80;;
